sensor_id;sensor_type;location;lat;lon;timestamp;pressure;altitude;pressure_sealevel;temperature;humidity
68873;BME280;55907;50.806;12.882;2023-09-30T00:00:49;978.8;;;19.6;67.6
68873;BME280;55907;50.806;12.882;2023-09-30T00:03:50;978.8;;;19.6;68.5
68873;BME280;55907;50.806;12.882;2023-09-30T00:06:52;978.8;;;19.5;69.4
68873;BME280;55907;50.806;12.882;2023-09-30T00:09:53;978.8;;;19.5;70.0
68873;BME280;55907;50.806;12.882;2023-09-30T00:12:55;978.9;;;19.4;70.7
68873;BME280;55907;50.806;12.882;2023-09-30T00:15:56;978.9;;;19.3;73.2
68873;BME280;55907;50.806;12.882;2023-09-30T00:18:58;979.0;;;19.2;73.6
68873;BME280;55907;50.806;12.882;2023-09-30T00:21:59;979.0;;;19.0;75.1
68873;BME280;55907;50.806;12.882;2023-09-30T00:25:01;979.1;;;18.8;75.9
68873;BME280;55907;50.806;12.882;2023-09-30T00:28:02;979.1;;;18.5;77.1
68873;BME280;55907;50.806;12.882;2023-09-30T00:31:06;979.2;;;18.3;77.6
68873;BME280;55907;50.806;12.882;2023-09-30T00:34:05;979.2;;;18.2;77.6
68873;BME280;55907;50.806;12.882;2023-09-30T00:37:06;979.3;;;17.9;79.1
68873;BME280;55907;50.806;12.882;2023-09-30T00:40:09;979.3;;;17.6;79.2
68873;BME280;55907;50.806;12.882;2023-09-30T00:43:17;979.3;;;17.4;78.7
68873;BME280;55907;50.806;12.882;2023-09-30T00:46:17;979.4;;;17.2;79.2
68873;BME280;55907;50.806;12.882;2023-09-30T00:49:13;979.3;;;17.0;79.4
68873;BME280;55907;50.806;12.882;2023-09-30T00:52:14;979.4;;;16.9;79.1
68873;BME280;55907;50.806;12.882;2023-09-30T00:55:16;979.4;;;16.7;78.9
68873;BME280;55907;50.806;12.882;2023-09-30T00:58:17;979.4;;;16.7;78.5
68873;BME280;55907;50.806;12.882;2023-09-30T01:01:19;979.4;;;16.6;79.0
68873;BME280;55907;50.806;12.882;2023-09-30T01:04:20;979.4;;;16.6;78.0
68873;BME280;55907;50.806;12.882;2023-09-30T01:07:21;979.6;;;16.5;79.2
68873;BME280;55907;50.806;12.882;2023-09-30T01:10:23;979.5;;;16.5;81.0
68873;BME280;55907;50.806;12.882;2023-09-30T01:13:31;979.6;;;16.3;83.3
68873;BME280;55907;50.806;12.882;2023-09-30T01:16:25;979.6;;;16.2;84.4
68873;BME280;55907;50.806;12.882;2023-09-30T01:19:27;979.6;;;16.0;85.4
68873;BME280;55907;50.806;12.882;2023-09-30T01:22:28;979.7;;;15.8;88.0
68873;BME280;55907;50.806;12.882;2023-09-30T01:25:30;979.7;;;15.7;87.5
68873;BME280;55907;50.806;12.882;2023-09-30T01:28:32;979.7;;;15.6;87.1
68873;BME280;55907;50.806;12.882;2023-09-30T01:31:33;979.8;;;15.5;87.6
68873;BME280;55907;50.806;12.882;2023-09-30T01:37:36;979.9;;;15.5;88.2
68873;BME280;55907;50.806;12.882;2023-09-30T01:40:37;980.0;;;15.5;86.3
68873;BME280;55907;50.806;12.882;2023-09-30T01:43:39;980.0;;;15.6;86.1
68873;BME280;55907;50.806;12.882;2023-09-30T01:46:40;980.0;;;15.6;87.7
68873;BME280;55907;50.806;12.882;2023-09-30T01:49:42;980.0;;;15.6;87.0
68873;BME280;55907;50.806;12.882;2023-09-30T01:52:43;980.1;;;15.6;87.6
68873;BME280;55907;50.806;12.882;2023-09-30T01:55:45;980.1;;;15.7;86.4
68873;BME280;55907;50.806;12.882;2023-09-30T01:58:46;980.2;;;15.7;85.7
68873;BME280;55907;50.806;12.882;2023-09-30T02:01:48;980.2;;;15.7;85.6
68873;BME280;55907;50.806;12.882;2023-09-30T02:04:49;980.3;;;15.7;85.4
68873;BME280;55907;50.806;12.882;2023-09-30T02:07:51;980.4;;;15.7;86.0
68873;BME280;55907;50.806;12.882;2023-09-30T02:10:52;980.4;;;15.6;86.8
68873;BME280;55907;50.806;12.882;2023-09-30T02:13:54;980.4;;;15.7;86.3
68873;BME280;55907;50.806;12.882;2023-09-30T02:16:55;980.5;;;15.7;86.8
68873;BME280;55907;50.806;12.882;2023-09-30T02:19:57;980.4;;;15.8;86.1
68873;BME280;55907;50.806;12.882;2023-09-30T02:22:58;980.4;;;15.7;84.0
68873;BME280;55907;50.806;12.882;2023-09-30T02:26:00;980.6;;;15.7;85.3
68873;BME280;55907;50.806;12.882;2023-09-30T02:29:01;980.6;;;15.6;82.3
68873;BME280;55907;50.806;12.882;2023-09-30T02:32:03;980.6;;;15.5;81.0
68873;BME280;55907;50.806;12.882;2023-09-30T02:35:09;980.6;;;15.5;81.0
68873;BME280;55907;50.806;12.882;2023-09-30T02:38:06;980.6;;;15.4;79.2
68873;BME280;55907;50.806;12.882;2023-09-30T02:41:07;980.6;;;15.2;78.7
68873;BME280;55907;50.806;12.882;2023-09-30T02:44:09;980.6;;;15.2;77.9
68873;BME280;55907;50.806;12.882;2023-09-30T02:47:10;980.6;;;15.1;78.4
68873;BME280;55907;50.806;12.882;2023-09-30T02:50:12;980.7;;;15.0;78.1
68873;BME280;55907;50.806;12.882;2023-09-30T02:53:13;980.8;;;15.0;78.4
68873;BME280;55907;50.806;12.882;2023-09-30T02:56:15;980.8;;;14.9;78.2
68873;BME280;55907;50.806;12.882;2023-09-30T02:59:16;980.9;;;14.9;78.8
68873;BME280;55907;50.806;12.882;2023-09-30T03:02:18;981.0;;;14.9;79.1
68873;BME280;55907;50.806;12.882;2023-09-30T03:05:20;981.0;;;14.9;79.5
68873;BME280;55907;50.806;12.882;2023-09-30T03:08:21;981.0;;;14.9;79.7
68873;BME280;55907;50.806;12.882;2023-09-30T03:11:22;981.1;;;14.8;79.7
68873;BME280;55907;50.806;12.882;2023-09-30T03:14:24;981.1;;;14.8;80.3
68873;BME280;55907;50.806;12.882;2023-09-30T03:17:25;981.1;;;14.8;80.8
68873;BME280;55907;50.806;12.882;2023-09-30T03:20:27;981.2;;;14.9;80.6
68873;BME280;55907;50.806;12.882;2023-09-30T03:23:28;981.3;;;14.9;80.8
68873;BME280;55907;50.806;12.882;2023-09-30T03:26:30;981.3;;;14.9;80.6
68873;BME280;55907;50.806;12.882;2023-09-30T03:29:31;981.4;;;14.9;81.2
68873;BME280;55907;50.806;12.882;2023-09-30T03:32:33;981.4;;;15.0;80.3
68873;BME280;55907;50.806;12.882;2023-09-30T03:35:34;981.4;;;15.0;80.0
68873;BME280;55907;50.806;12.882;2023-09-30T03:38:36;981.4;;;14.9;79.8
68873;BME280;55907;50.806;12.882;2023-09-30T03:41:37;981.5;;;14.7;80.2
68873;BME280;55907;50.806;12.882;2023-09-30T03:44:39;981.5;;;14.7;79.9
68873;BME280;55907;50.806;12.882;2023-09-30T03:47:41;981.4;;;14.7;79.6
68873;BME280;55907;50.806;12.882;2023-09-30T03:50:42;981.5;;;14.6;80.2
68873;BME280;55907;50.806;12.882;2023-09-30T03:53:44;981.6;;;14.6;80.4
68873;BME280;55907;50.806;12.882;2023-09-30T03:56:45;981.7;;;14.5;80.3
68873;BME280;55907;50.806;12.882;2023-09-30T03:59:46;981.7;;;14.5;80.3
68873;BME280;55907;50.806;12.882;2023-09-30T04:02:48;981.7;;;14.5;80.7
68873;BME280;55907;50.806;12.882;2023-09-30T04:05:49;981.8;;;14.5;81.0
68873;BME280;55907;50.806;12.882;2023-09-30T04:11:52;981.8;;;14.5;80.3
68873;BME280;55907;50.806;12.882;2023-09-30T04:14:54;981.8;;;14.5;80.5
68873;BME280;55907;50.806;12.882;2023-09-30T04:17:55;981.8;;;14.5;80.0
68873;BME280;55907;50.806;12.882;2023-09-30T04:20:57;981.9;;;14.5;79.9
68873;BME280;55907;50.806;12.882;2023-09-30T04:23:58;981.9;;;14.5;79.2
68873;BME280;55907;50.806;12.882;2023-09-30T04:27:00;981.9;;;14.5;78.6
68873;BME280;55907;50.806;12.882;2023-09-30T04:30:01;982.0;;;14.5;79.6
68873;BME280;55907;50.806;12.882;2023-09-30T04:33:03;982.0;;;14.5;79.0
68873;BME280;55907;50.806;12.882;2023-09-30T04:39:06;981.9;;;14.5;79.7
68873;BME280;55907;50.806;12.882;2023-09-30T04:42:07;981.9;;;14.5;79.6
68873;BME280;55907;50.806;12.882;2023-09-30T04:45:11;981.9;;;14.5;79.8
68873;BME280;55907;50.806;12.882;2023-09-30T04:48:10;981.9;;;14.4;80.4
68873;BME280;55907;50.806;12.882;2023-09-30T04:51:12;981.9;;;14.4;81.2
68873;BME280;55907;50.806;12.882;2023-09-30T04:54:13;981.9;;;14.4;80.9
68873;BME280;55907;50.806;12.882;2023-09-30T04:57:15;981.9;;;14.3;81.8
68873;BME280;55907;50.806;12.882;2023-09-30T05:00:18;981.9;;;14.3;82.6
68873;BME280;55907;50.806;12.882;2023-09-30T05:03:18;981.9;;;14.3;82.3
68873;BME280;55907;50.806;12.882;2023-09-30T05:06:19;981.9;;;14.3;82.0
68873;BME280;55907;50.806;12.882;2023-09-30T05:09:21;982.0;;;14.4;82.9
68873;BME280;55907;50.806;12.882;2023-09-30T05:12:23;982.0;;;14.4;83.0
68873;BME280;55907;50.806;12.882;2023-09-30T05:15:24;982.1;;;14.5;82.5
68873;BME280;55907;50.806;12.882;2023-09-30T05:18:25;982.0;;;14.4;83.3
68873;BME280;55907;50.806;12.882;2023-09-30T05:21:27;981.9;;;14.4;82.8
68873;BME280;55907;50.806;12.882;2023-09-30T05:24:28;981.9;;;14.4;83.5
68873;BME280;55907;50.806;12.882;2023-09-30T05:27:30;982.0;;;14.4;83.3
68873;BME280;55907;50.806;12.882;2023-09-30T05:30:31;982.0;;;14.4;82.2
68873;BME280;55907;50.806;12.882;2023-09-30T05:33:33;982.0;;;14.4;82.2
68873;BME280;55907;50.806;12.882;2023-09-30T05:36:34;982.0;;;14.3;83.1
68873;BME280;55907;50.806;12.882;2023-09-30T05:39:36;982.1;;;14.3;83.7
68873;BME280;55907;50.806;12.882;2023-09-30T05:42:37;982.1;;;14.4;83.5
68873;BME280;55907;50.806;12.882;2023-09-30T05:45:39;982.1;;;14.4;83.2
68873;BME280;55907;50.806;12.882;2023-09-30T05:48:41;982.3;;;14.5;83.0
68873;BME280;55907;50.806;12.882;2023-09-30T05:51:42;982.3;;;14.4;82.5
68873;BME280;55907;50.806;12.882;2023-09-30T05:54:43;982.3;;;14.4;82.2
68873;BME280;55907;50.806;12.882;2023-09-30T05:57:45;982.3;;;14.5;82.3
68873;BME280;55907;50.806;12.882;2023-09-30T06:00:46;982.4;;;14.5;82.0
68873;BME280;55907;50.806;12.882;2023-09-30T06:03:48;982.5;;;14.4;82.2
68873;BME280;55907;50.806;12.882;2023-09-30T06:06:49;982.6;;;14.3;82.2
68873;BME280;55907;50.806;12.882;2023-09-30T06:09:51;982.6;;;14.3;82.2
68873;BME280;55907;50.806;12.882;2023-09-30T06:12:53;982.6;;;14.3;82.6
68873;BME280;55907;50.806;12.882;2023-09-30T06:15:54;982.6;;;14.3;82.7
68873;BME280;55907;50.806;12.882;2023-09-30T06:18:55;982.7;;;14.4;82.3
68873;BME280;55907;50.806;12.882;2023-09-30T06:21:57;982.8;;;14.4;81.8
68873;BME280;55907;50.806;12.882;2023-09-30T06:24:58;982.8;;;14.4;81.0
68873;BME280;55907;50.806;12.882;2023-09-30T06:28:00;982.8;;;14.4;80.8
68873;BME280;55907;50.806;12.882;2023-09-30T06:31:01;982.8;;;14.4;81.2
68873;BME280;55907;50.806;12.882;2023-09-30T06:34:03;982.7;;;14.5;81.1
68873;BME280;55907;50.806;12.882;2023-09-30T06:37:04;982.7;;;14.5;80.4
68873;BME280;55907;50.806;12.882;2023-09-30T06:40:07;982.8;;;14.7;79.5
68873;BME280;55907;50.806;12.882;2023-09-30T06:43:07;982.7;;;14.8;79.4
68873;BME280;55907;50.806;12.882;2023-09-30T06:46:09;982.7;;;14.8;79.0
68873;BME280;55907;50.806;12.882;2023-09-30T06:49:10;982.9;;;14.9;78.9
68873;BME280;55907;50.806;12.882;2023-09-30T06:52:11;982.9;;;15.1;77.6
68873;BME280;55907;50.806;12.882;2023-09-30T06:55:13;983.0;;;15.4;76.9
68873;BME280;55907;50.806;12.882;2023-09-30T06:58:14;983.1;;;15.6;76.0
68873;BME280;55907;50.806;12.882;2023-09-30T07:01:16;983.0;;;15.6;75.6
68873;BME280;55907;50.806;12.882;2023-09-30T07:04:17;983.0;;;15.6;75.2
68873;BME280;55907;50.806;12.882;2023-09-30T07:07:19;983.1;;;15.5;75.2
68873;BME280;55907;50.806;12.882;2023-09-30T07:10:20;983.1;;;15.5;75.6
68873;BME280;55907;50.806;12.882;2023-09-30T07:13:22;983.1;;;15.4;75.0
68873;BME280;55907;50.806;12.882;2023-09-30T07:16:23;983.1;;;15.4;75.1
68873;BME280;55907;50.806;12.882;2023-09-30T07:19:25;983.1;;;15.4;75.0
68873;BME280;55907;50.806;12.882;2023-09-30T07:22:26;983.1;;;15.5;74.6
68873;BME280;55907;50.806;12.882;2023-09-30T07:25:28;983.1;;;15.5;74.5
68873;BME280;55907;50.806;12.882;2023-09-30T07:28:29;983.2;;;15.6;74.2
68873;BME280;55907;50.806;12.882;2023-09-30T07:31:33;983.2;;;15.7;74.3
68873;BME280;55907;50.806;12.882;2023-09-30T07:34:32;983.1;;;15.8;73.7
68873;BME280;55907;50.806;12.882;2023-09-30T07:37:34;983.1;;;15.9;73.3
68873;BME280;55907;50.806;12.882;2023-09-30T07:40:35;983.1;;;15.9;72.2
68873;BME280;55907;50.806;12.882;2023-09-30T07:43:37;983.2;;;15.9;72.2
68873;BME280;55907;50.806;12.882;2023-09-30T07:46:38;983.2;;;15.8;72.5
68873;BME280;55907;50.806;12.882;2023-09-30T07:49:39;983.2;;;15.8;72.9
68873;BME280;55907;50.806;12.882;2023-09-30T07:52:41;983.3;;;15.9;72.7
68873;BME280;55907;50.806;12.882;2023-09-30T07:55:42;983.3;;;16.1;71.6
68873;BME280;55907;50.806;12.882;2023-09-30T07:58:44;983.3;;;16.2;70.9
68873;BME280;55907;50.806;12.882;2023-09-30T08:01:47;983.4;;;16.3;70.1
68873;BME280;55907;50.806;12.882;2023-09-30T08:04:47;983.3;;;16.2;69.6
68873;BME280;55907;50.806;12.882;2023-09-30T08:07:48;983.3;;;16.2;69.8
68873;BME280;55907;50.806;12.882;2023-09-30T08:10:50;983.4;;;16.2;69.7
68873;BME280;55907;50.806;12.882;2023-09-30T08:13:51;983.4;;;16.2;69.8
68873;BME280;55907;50.806;12.882;2023-09-30T08:16:53;983.4;;;16.2;69.1
68873;BME280;55907;50.806;12.882;2023-09-30T08:19:54;983.4;;;16.3;68.8
68873;BME280;55907;50.806;12.882;2023-09-30T08:22:56;983.4;;;16.2;69.2
68873;BME280;55907;50.806;12.882;2023-09-30T08:25:58;983.4;;;16.4;69.2
68873;BME280;55907;50.806;12.882;2023-09-30T08:28:59;983.4;;;16.5;68.9
68873;BME280;55907;50.806;12.882;2023-09-30T08:32:00;983.4;;;16.6;68.1
68873;BME280;55907;50.806;12.882;2023-09-30T08:35:02;983.5;;;16.5;68.0
68873;BME280;55907;50.806;12.882;2023-09-30T08:38:04;983.6;;;16.5;68.3
68873;BME280;55907;50.806;12.882;2023-09-30T08:41:05;983.6;;;16.5;68.0
68873;BME280;55907;50.806;12.882;2023-09-30T08:44:06;983.7;;;16.6;67.6
68873;BME280;55907;50.806;12.882;2023-09-30T08:47:07;983.7;;;16.7;67.3
68873;BME280;55907;50.806;12.882;2023-09-30T08:50:10;983.6;;;16.8;67.1
68873;BME280;55907;50.806;12.882;2023-09-30T08:53:10;983.7;;;17.0;66.4
68873;BME280;55907;50.806;12.882;2023-09-30T08:56:13;983.8;;;17.2;65.9
68873;BME280;55907;50.806;12.882;2023-09-30T08:59:13;983.9;;;17.6;64.8
68873;BME280;55907;50.806;12.882;2023-09-30T09:02:15;983.9;;;17.8;62.4
68873;BME280;55907;50.806;12.882;2023-09-30T09:05:16;983.8;;;17.8;62.6
68873;BME280;55907;50.806;12.882;2023-09-30T09:08:17;983.9;;;17.8;62.7
68873;BME280;55907;50.806;12.882;2023-09-30T09:11:19;984.0;;;17.8;62.6
68873;BME280;55907;50.806;12.882;2023-09-30T09:14:36;983.9;;;17.9;61.9
68873;BME280;55907;50.806;12.882;2023-09-30T09:17:22;984.0;;;18.0;61.9
68873;BME280;55907;50.806;12.882;2023-09-30T09:20:25;983.9;;;18.0;59.7
68873;BME280;55907;50.806;12.882;2023-09-30T09:23:25;983.8;;;18.1;60.1
68873;BME280;55907;50.806;12.882;2023-09-30T09:26:28;983.8;;;18.5;58.9
68873;BME280;55907;50.806;12.882;2023-09-30T09:29:28;983.9;;;18.8;58.4
68873;BME280;55907;50.806;12.882;2023-09-30T09:32:29;983.9;;;19.1;57.0
68873;BME280;55907;50.806;12.882;2023-09-30T09:35:31;983.9;;;19.6;55.5
68873;BME280;55907;50.806;12.882;2023-09-30T09:38:43;983.9;;;19.6;54.7
68873;BME280;55907;50.806;12.882;2023-09-30T09:41:52;983.8;;;19.5;54.3
68873;BME280;55907;50.806;12.882;2023-09-30T09:44:36;983.9;;;19.7;53.2
68873;BME280;55907;50.806;12.882;2023-09-30T09:47:36;983.9;;;19.9;52.6
68873;BME280;55907;50.806;12.882;2023-09-30T09:50:38;983.9;;;20.4;51.9
68873;BME280;55907;50.806;12.882;2023-09-30T09:53:41;983.9;;;21.5;49.0
68873;BME280;55907;50.806;12.882;2023-09-30T09:56:42;983.9;;;21.8;48.0
68873;BME280;55907;50.806;12.882;2023-09-30T09:59:43;983.9;;;21.3;48.8
68873;BME280;55907;50.806;12.882;2023-09-30T10:02:44;983.8;;;21.6;49.3
68873;BME280;55907;50.806;12.882;2023-09-30T10:05:46;983.8;;;21.8;47.0
68873;BME280;55907;50.806;12.882;2023-09-30T10:08:49;983.9;;;22.4;46.0
68873;BME280;55907;50.806;12.882;2023-09-30T10:11:48;983.8;;;23.5;44.6
68873;BME280;55907;50.806;12.882;2023-09-30T10:14:49;983.8;;;24.3;42.0
68873;BME280;55907;50.806;12.882;2023-09-30T10:17:58;983.8;;;24.9;42.0
68873;BME280;55907;50.806;12.882;2023-09-30T10:21:07;983.8;;;25.6;39.9
68873;BME280;55907;50.806;12.882;2023-09-30T10:29:56;984.0;;;26.5;35.5
68873;BME280;55907;50.806;12.882;2023-09-30T10:33:07;983.9;;;26.6;39.5
68873;BME280;55907;50.806;12.882;2023-09-30T10:35:59;983.9;;;26.1;37.7
68873;BME280;55907;50.806;12.882;2023-09-30T10:39:00;984.0;;;25.2;37.5
68873;BME280;55907;50.806;12.882;2023-09-30T10:42:01;984.0;;;24.5;39.2
68873;BME280;55907;50.806;12.882;2023-09-30T10:45:03;984.0;;;23.8;40.8
68873;BME280;55907;50.806;12.882;2023-09-30T10:51:14;984.0;;;22.9;43.7
68873;BME280;55907;50.806;12.882;2023-09-30T10:54:07;984.0;;;22.8;42.1
68873;BME280;55907;50.806;12.882;2023-09-30T10:57:10;983.9;;;22.9;40.6
68873;BME280;55907;50.806;12.882;2023-09-30T11:00:10;983.9;;;22.7;41.4
68873;BME280;55907;50.806;12.882;2023-09-30T11:03:11;983.9;;;22.6;41.8
68873;BME280;55907;50.806;12.882;2023-09-30T11:06:13;983.8;;;21.9;43.6
68873;BME280;55907;50.806;12.882;2023-09-30T11:09:15;983.8;;;21.6;43.3
68873;BME280;55907;50.806;12.882;2023-09-30T11:12:15;983.8;;;22.0;42.8
68873;BME280;55907;50.806;12.882;2023-09-30T11:15:17;983.8;;;22.4;42.6
68873;BME280;55907;50.806;12.882;2023-09-30T11:18:18;983.8;;;22.7;42.1
68873;BME280;55907;50.806;12.882;2023-09-30T11:21:21;983.7;;;22.6;41.5
68873;BME280;55907;50.806;12.882;2023-09-30T11:24:21;983.7;;;22.5;40.7
68873;BME280;55907;50.806;12.882;2023-09-30T11:27:23;983.8;;;22.7;39.7
68873;BME280;55907;50.806;12.882;2023-09-30T11:30:24;983.8;;;22.6;39.8
68873;BME280;55907;50.806;12.882;2023-09-30T11:33:25;983.8;;;22.6;40.3
68873;BME280;55907;50.806;12.882;2023-09-30T11:36:27;983.7;;;22.7;39.2
68873;BME280;55907;50.806;12.882;2023-09-30T11:39:29;983.7;;;22.7;39.5
68873;BME280;55907;50.806;12.882;2023-09-30T11:42:29;983.7;;;22.6;39.3
68873;BME280;55907;50.806;12.882;2023-09-30T11:45:31;983.7;;;22.4;39.1
68873;BME280;55907;50.806;12.882;2023-09-30T11:48:32;983.7;;;22.6;39.3
68873;BME280;55907;50.806;12.882;2023-09-30T11:51:42;983.7;;;22.6;39.2
68873;BME280;55907;50.806;12.882;2023-09-30T11:54:37;983.6;;;22.6;40.7
68873;BME280;55907;50.806;12.882;2023-09-30T11:57:37;983.7;;;22.7;40.7
68873;BME280;55907;50.806;12.882;2023-09-30T12:00:40;983.6;;;22.8;40.5
68873;BME280;55907;50.806;12.882;2023-09-30T12:03:39;983.6;;;22.8;38.9
68873;BME280;55907;50.806;12.882;2023-09-30T12:06:41;983.6;;;22.6;37.9
68873;BME280;55907;50.806;12.882;2023-09-30T12:09:42;983.6;;;22.4;38.5
68873;BME280;55907;50.806;12.882;2023-09-30T12:12:44;983.6;;;22.3;39.6
68873;BME280;55907;50.806;12.882;2023-09-30T12:15:45;983.6;;;22.2;38.4
68873;BME280;55907;50.806;12.882;2023-09-30T12:18:46;983.5;;;22.0;39.7
68873;BME280;55907;50.806;12.882;2023-09-30T12:21:48;983.5;;;21.9;40.2
68873;BME280;55907;50.806;12.882;2023-09-30T12:24:49;983.5;;;21.8;40.8
68873;BME280;55907;50.806;12.882;2023-09-30T12:27:51;983.4;;;21.8;40.6
68873;BME280;55907;50.806;12.882;2023-09-30T12:30:52;983.4;;;21.9;39.2
68873;BME280;55907;50.806;12.882;2023-09-30T12:33:54;983.3;;;21.7;39.0
68873;BME280;55907;50.806;12.882;2023-09-30T12:36:55;983.3;;;21.7;40.1
68873;BME280;55907;50.806;12.882;2023-09-30T12:39:56;983.2;;;21.8;39.5
68873;BME280;55907;50.806;12.882;2023-09-30T12:42:58;983.2;;;21.6;39.5
68873;BME280;55907;50.806;12.882;2023-09-30T12:46:01;983.2;;;21.5;39.8
68873;BME280;55907;50.806;12.882;2023-09-30T12:49:01;983.3;;;21.4;39.5
68873;BME280;55907;50.806;12.882;2023-09-30T12:52:02;983.3;;;21.4;39.8
68873;BME280;55907;50.806;12.882;2023-09-30T12:55:04;983.3;;;21.6;39.5
68873;BME280;55907;50.806;12.882;2023-09-30T12:58:05;983.2;;;21.6;41.0
68873;BME280;55907;50.806;12.882;2023-09-30T13:01:06;983.2;;;21.7;40.4
68873;BME280;55907;50.806;12.882;2023-09-30T13:04:08;983.2;;;21.8;40.3
68873;BME280;55907;50.806;12.882;2023-09-30T13:07:10;983.1;;;21.8;39.3
68873;BME280;55907;50.806;12.882;2023-09-30T13:10:11;983.2;;;21.7;38.7
68873;BME280;55907;50.806;12.882;2023-09-30T13:13:12;983.2;;;21.6;39.3
68873;BME280;55907;50.806;12.882;2023-09-30T13:16:14;983.1;;;21.6;39.3
68873;BME280;55907;50.806;12.882;2023-09-30T13:19:15;983.1;;;21.6;39.8
68873;BME280;55907;50.806;12.882;2023-09-30T13:22:17;983.1;;;21.6;39.4
68873;BME280;55907;50.806;12.882;2023-09-30T13:25:18;983.1;;;21.7;39.3
68873;BME280;55907;50.806;12.882;2023-09-30T13:28:19;983.1;;;21.6;38.9
68873;BME280;55907;50.806;12.882;2023-09-30T13:31:21;983.1;;;21.5;38.7
68873;BME280;55907;50.806;12.882;2023-09-30T13:34:22;983.2;;;21.4;38.9
68873;BME280;55907;50.806;12.882;2023-09-30T13:37:24;983.1;;;21.3;37.3
68873;BME280;55907;50.806;12.882;2023-09-30T13:40:25;983.0;;;21.2;38.3
68873;BME280;55907;50.806;12.882;2023-09-30T13:43:26;983.0;;;21.2;38.3
68873;BME280;55907;50.806;12.882;2023-09-30T13:46:28;983.0;;;21.3;37.7
68873;BME280;55907;50.806;12.882;2023-09-30T13:49:29;983.0;;;21.2;39.1
68873;BME280;55907;50.806;12.882;2023-09-30T13:52:31;983.0;;;21.1;38.2
68873;BME280;55907;50.806;12.882;2023-09-30T13:55:32;982.9;;;21.1;37.9
68873;BME280;55907;50.806;12.882;2023-09-30T13:58:34;982.9;;;21.0;39.1
68873;BME280;55907;50.806;12.882;2023-09-30T14:01:35;982.9;;;21.1;38.9
68873;BME280;55907;50.806;12.882;2023-09-30T14:04:36;982.9;;;21.2;39.4
68873;BME280;55907;50.806;12.882;2023-09-30T14:07:38;982.9;;;21.2;38.4
68873;BME280;55907;50.806;12.882;2023-09-30T14:10:39;982.8;;;21.1;38.9
68873;BME280;55907;50.806;12.882;2023-09-30T14:13:41;982.8;;;21.0;38.8
68873;BME280;55907;50.806;12.882;2023-09-30T14:16:42;982.9;;;20.9;39.0
68873;BME280;55907;50.806;12.882;2023-09-30T14:19:44;982.9;;;20.8;40.4
68873;BME280;55907;50.806;12.882;2023-09-30T14:22:45;982.9;;;20.8;40.7
68873;BME280;55907;50.806;12.882;2023-09-30T14:25:47;982.9;;;20.8;40.8
68873;BME280;55907;50.806;12.882;2023-09-30T14:28:48;982.9;;;20.6;39.5
68873;BME280;55907;50.806;12.882;2023-09-30T14:31:49;982.9;;;20.5;40.4
68873;BME280;55907;50.806;12.882;2023-09-30T14:34:51;982.9;;;20.5;40.7
68873;BME280;55907;50.806;12.882;2023-09-30T14:37:53;982.9;;;20.5;40.8
68873;BME280;55907;50.806;12.882;2023-09-30T14:40:54;982.9;;;20.5;40.8
68873;BME280;55907;50.806;12.882;2023-09-30T14:43:55;982.8;;;20.4;40.3
68873;BME280;55907;50.806;12.882;2023-09-30T14:46:57;982.9;;;20.3;41.5
68873;BME280;55907;50.806;12.882;2023-09-30T14:49:58;982.9;;;20.2;41.4
68873;BME280;55907;50.806;12.882;2023-09-30T14:53:00;982.9;;;20.1;42.1
68873;BME280;55907;50.806;12.882;2023-09-30T14:56:01;982.9;;;20.1;42.1
68873;BME280;55907;50.806;12.882;2023-09-30T14:59:02;983.0;;;20.0;41.8
68873;BME280;55907;50.806;12.882;2023-09-30T15:02:04;982.9;;;20.0;42.0
68873;BME280;55907;50.806;12.882;2023-09-30T15:05:06;982.9;;;19.9;41.4
68873;BME280;55907;50.806;12.882;2023-09-30T15:08:07;982.8;;;19.9;42.2
68873;BME280;55907;50.806;12.882;2023-09-30T15:11:13;982.8;;;19.8;41.9
68873;BME280;55907;50.806;12.882;2023-09-30T15:14:10;982.8;;;19.8;42.1
68873;BME280;55907;50.806;12.882;2023-09-30T15:17:11;982.8;;;19.7;42.9
68873;BME280;55907;50.806;12.882;2023-09-30T15:20:12;982.9;;;19.6;42.6
68873;BME280;55907;50.806;12.882;2023-09-30T15:23:14;982.8;;;19.6;43.2
68873;BME280;55907;50.806;12.882;2023-09-30T15:29:17;982.8;;;19.5;43.9
68873;BME280;55907;50.806;12.882;2023-09-30T15:32:18;982.8;;;19.4;43.6
68873;BME280;55907;50.806;12.882;2023-09-30T15:35:20;982.9;;;19.3;44.2
68873;BME280;55907;50.806;12.882;2023-09-30T15:38:21;982.8;;;19.2;43.4
68873;BME280;55907;50.806;12.882;2023-09-30T15:41:23;982.8;;;19.1;43.7
68873;BME280;55907;50.806;12.882;2023-09-30T15:44:24;982.8;;;19.0;43.9
68873;BME280;55907;50.806;12.882;2023-09-30T15:47:25;982.8;;;18.8;44.8
68873;BME280;55907;50.806;12.882;2023-09-30T15:50:27;982.8;;;18.8;44.5
68873;BME280;55907;50.806;12.882;2023-09-30T15:53:28;982.8;;;18.7;44.4
68873;BME280;55907;50.806;12.882;2023-09-30T15:56:30;982.8;;;18.6;44.5
68873;BME280;55907;50.806;12.882;2023-09-30T15:59:31;982.8;;;18.5;45.9
68873;BME280;55907;50.806;12.882;2023-09-30T16:02:33;982.9;;;18.4;46.9
68873;BME280;55907;50.806;12.882;2023-09-30T16:05:36;982.9;;;18.4;46.2
68873;BME280;55907;50.806;12.882;2023-09-30T16:08:36;982.9;;;18.3;46.1
68873;BME280;55907;50.806;12.882;2023-09-30T16:11:37;982.8;;;18.1;47.4
68873;BME280;55907;50.806;12.882;2023-09-30T16:14:38;982.7;;;18.0;48.0
68873;BME280;55907;50.806;12.882;2023-09-30T16:17:40;982.7;;;17.9;48.5
68873;BME280;55907;50.806;12.882;2023-09-30T16:20:41;982.8;;;17.8;49.1
68873;BME280;55907;50.806;12.882;2023-09-30T16:23:43;982.8;;;17.7;50.2
68873;BME280;55907;50.806;12.882;2023-09-30T16:26:44;982.8;;;17.6;51.2
68873;BME280;55907;50.806;12.882;2023-09-30T16:29:46;982.8;;;17.5;51.2
68873;BME280;55907;50.806;12.882;2023-09-30T16:32:47;982.8;;;17.4;52.2
68873;BME280;55907;50.806;12.882;2023-09-30T16:35:49;982.9;;;17.3;52.3
68873;BME280;55907;50.806;12.882;2023-09-30T16:38:50;982.8;;;17.1;52.7
68873;BME280;55907;50.806;12.882;2023-09-30T16:41:52;982.8;;;17.0;53.3
68873;BME280;55907;50.806;12.882;2023-09-30T16:44:53;982.7;;;16.9;53.5
68873;BME280;55907;50.806;12.882;2023-09-30T16:47:54;982.7;;;16.7;54.6
68873;BME280;55907;50.806;12.882;2023-09-30T16:50:56;982.8;;;16.5;54.8
68873;BME280;55907;50.806;12.882;2023-09-30T16:53:57;982.8;;;16.4;54.1
68873;BME280;55907;50.806;12.882;2023-09-30T16:56:59;982.9;;;16.3;54.4
68873;BME280;55907;50.806;12.882;2023-09-30T17:00:00;982.9;;;16.2;55.2
68873;BME280;55907;50.806;12.882;2023-09-30T17:03:02;983.0;;;16.1;54.9
68873;BME280;55907;50.806;12.882;2023-09-30T17:06:04;982.9;;;16.0;55.3
68873;BME280;55907;50.806;12.882;2023-09-30T17:09:05;983.0;;;15.9;56.7
68873;BME280;55907;50.806;12.882;2023-09-30T17:12:06;983.0;;;15.8;57.2
68873;BME280;55907;50.806;12.882;2023-09-30T17:15:08;982.9;;;15.7;57.0